Hensies, Belgium
Current Conditions -  °F | °C
As of 2:25 PM on Monday 20 Oct 2014 (Local Time) from EBCV Reporting Station
Broken Clouds Broken Clouds  
Wind Chill: 61°   Ceiling: 5000
Heat Index: 61°   Visibility: 6mi
Dew Point: 54°   Wind: 12mph
Humidity: 77%   Direction: 240°WSW
Pressure: 30.06"   Gusts: NA
Location:  50.43°N, 3.68°E
Report Text: EBCV 201225Z AUTO 24010KT 9999 FEW021/// SCT036/// BKN050/// 16/12 Q1018 BLU
Loading
Personal Weather Stations






























Interactive Weather Map
Tropical Storm Tracking
New forecast layout! Learn more

10-Day Weather Forecast

Advertisements
Track Severe Weather on mobile